Airport Name : Braunschweig Wolfsburg

Other Name : Braunschweig

ICAO : EDVE

IATA : BWE

FAA :

Latitude : 52.319167

Longitude : 10.556111

Country : Germany

Local Date and Time : 10/23/2018 8:55:00 AM

 

TAF (Terminal Aerodrome Forecast)

TAF EDVE 230500Z 2306/2315 26015G30KT 9999 BKN025 TEMPO 2309/2315 BKN014 TEMPO 2310/2315 28020G40KT PROB30 TEMPO 2311/2315 3500 -RADZ BKN008

 

METAR (METeorological Aerodrome Report)

EDVE 230620Z 26019KT 9999 BKN027 OVC035 08/04 Q1019

EDVE 230550Z 26018KT 9999 OVC027 08/03 Q1020

EDVE 230520Z 26016KT 9999 OVC028 07/03 Q1021

EDVE 230450Z 25014KT CAVOK 07/03 Q1021